Time;durP1;ratioP1;P1;durP2;ratioP2;P2;SDS_P1;SDS_P2;PMS_P1;PMS_P2;Temp;Humidity;BMP_temperature;BMP_pressure;BME280_temperature;BME280_humidity;BME280_pressure;Samples;Min_cycle;Max_cycle;Signal;HPM_P1;HPM_P2
2023/06/08 00:00:39;;;;;;;;;;;;;;;25.81;nan;101819.00;4980503;28;19933;-85
2023/06/08 00:03:04;;;;;;;;;;;;;;;25.75;nan;101821.13;4981583;28;19922;-84
2023/06/08 00:05:31;;;;;;;;;;;;;;;25.70;nan;101817.75;4983544;28;19929;-84
2023/06/08 00:07:57;;;;;;;;;;;;;;;25.63;nan;101820.94;4983607;28;19973;-84
2023/06/08 00:10:25;;;;;;;;;;;;;;;25.53;nan;101821.28;4978515;28;20969;-85
2023/06/08 00:12:52;;;;;;;;;;;;;;;25.45;nan;101819.31;4980868;28;19940;-85
2023/06/08 00:15:17;;;;;;;;;;;;;;;25.38;nan;101828.06;4983347;28;20012;-84
2023/06/08 00:17:43;;;;;;;;;;;;;;;25.32;nan;101829.34;4981782;28;20156;-84
2023/06/08 00:20:09;;;;;;;;;;;;;;;25.23;nan;101832.06;4981948;28;19925;-84
2023/06/08 00:22:36;;;;;;;;;;;;;;;25.14;nan;101828.53;4985379;28;19984;-84
2023/06/08 00:25:03;;;;;;;;;;;;;;;25.03;nan;101829.13;4980513;28;20571;-84
2023/06/08 00:27:28;;;;;;;;;;;;;;;24.95;nan;101834.22;4984259;28;20085;-84
2023/06/08 00:29:53;;;;;;;;;;;;;;;24.86;nan;101829.88;4982235;28;20410;-84
2023/06/08 00:32:18;;;;;;;;;;;;;;;24.79;nan;101829.53;4981748;28;19953;-84
2023/06/08 00:34:44;;;;;;;;;;;;;;;24.74;nan;101837.88;4980247;28;19964;-84
2023/06/08 00:37:09;;;;;;;;;;;;;;;24.71;nan;101825.63;4983548;28;20413;-84
2023/06/08 00:39:35;;;;;;;;;;;;;;;24.68;nan;101831.75;4982817;28;19932;-84
2023/06/08 00:42:00;;;;;;;;;;;;;;;24.65;nan;101826.91;4993738;28;20382;-84
2023/06/08 00:44:25;;;;;;;;;;;;;;;24.60;nan;101830.59;4986646;28;19969;-84
2023/06/08 00:46:51;;;;;;;;;;;;;;;24.55;nan;101829.91;4980941;28;19917;-84
2023/06/08 00:49:17;;;;;;;;;;;;;;;24.50;nan;101822.66;4979446;28;20796;-84
2023/06/08 00:51:43;;;;;;;;;;;;;;;24.44;nan;101820.38;4980425;28;19945;-85
2023/06/08 00:54:12;;;;;;;;;;;;;;;24.31;nan;101822.88;4986416;28;20492;-83
2023/06/08 00:56:38;;;;;;;;;;;;;;;24.26;nan;101825.75;4981565;28;19921;-84
2023/06/08 00:59:05;;;;;;;;;;;;;;;24.22;nan;101826.66;4980756;28;20425;-84
2023/06/08 01:01:30;;;;;;;;;;;;;;;24.17;nan;101822.13;4980344;28;19918;-85
2023/06/08 01:04:05;;;;;;;;;;;;;;;24.03;nan;101814.00;4981747;28;19921;-84
2023/06/08 01:06:31;;;;;;;;;;;;;;;23.84;nan;101809.84;4983608;28;19925;-84
2023/06/08 01:08:57;;;;;;;;;;;;;;;23.72;nan;101811.25;4982012;28;20009;-84
2023/06/08 01:11:32;;;;;;;;;;;;;;;23.67;nan;101818.75;4979164;28;20008;-85
2023/06/08 01:13:58;;;;;;;;;;;;;;;23.56;nan;101812.69;4979004;28;19926;-84
2023/06/08 01:16:27;;;;;;;;;;;;;;;23.58;nan;101815.16;4982493;28;19926;-84
2023/06/08 01:18:58;;;;;;;;;;;;;;;23.64;nan;101809.22;4985693;28;19918;-84
2023/06/08 01:21:37;;;;;;;;;;;;;;;23.68;nan;101803.94;4981709;28;20445;-84
2023/06/08 01:24:20;;;;;;;;;;;;;;;23.68;nan;101806.69;4983835;28;19921;-84
2023/06/08 01:26:49;;;;;;;;;;;;;;;23.61;nan;101798.91;4985273;28;19925;-84
2023/06/08 01:29:15;;;;;;;;;;;;;;;23.55;nan;101802.06;4983005;28;19983;-84
2023/06/08 01:31:41;;;;;;;;;;;;;;;23.48;nan;101799.75;4980929;28;19922;-84
2023/06/08 01:34:06;;;;;;;;;;;;;;;23.42;nan;101796.31;4978965;28;19945;-84
2023/06/08 01:36:33;;;;;;;;;;;;;;;23.40;nan;101798.56;4982394;28;19917;-84
2023/06/08 01:38:59;;;;;;;;;;;;;;;23.42;nan;101799.06;4981656;28;20044;-84
2023/06/08 01:41:27;;;;;;;;;;;;;;;23.42;nan;101795.50;4983275;28;20630;-84
2023/06/08 01:43:53;;;;;;;;;;;;;;;23.35;nan;101800.63;4981172;28;19918;-83
2023/06/08 01:46:20;;;;;;;;;;;;;;;23.25;nan;101796.16;4979722;28;19956;-84
2023/06/08 01:48:47;;;;;;;;;;;;;;;23.17;nan;101789.53;4978181;28;19933;-83
2023/06/08 01:51:13;;;;;;;;;;;;;;;23.09;nan;101792.97;4978390;28;19913;-84
2023/06/08 01:53:38;;;;;;;;;;;;;;;23.04;nan;101795.00;4982599;28;19929;-84
2023/06/08 01:56:04;;;;;;;;;;;;;;;23.02;nan;101797.25;4980483;28;19918;-83
2023/06/08 01:58:29;;;;;;;;;;;;;;;23.00;nan;101794.00;4978672;28;19984;-84
2023/06/08 02:00:55;;;;;;;;;;;;;;;22.97;nan;101794.59;4980491;28;20013;-84
2023/06/08 02:03:20;;;;;;;;;;;;;;;22.91;nan;101793.91;4979273;28;19920;-84
2023/06/08 02:05:45;;;;;;;;;;;;;;;22.87;nan;101790.19;4985029;28;20365;-84
2023/06/08 02:08:10;;;;;;;;;;;;;;;22.85;nan;101793.22;4985737;28;19914;-84
2023/06/08 02:10:36;;;;;;;;;;;;;;;22.85;nan;101789.69;4987159;28;19921;-84
2023/06/08 02:13:02;;;;;;;;;;;;;;;22.83;nan;101795.44;4984899;28;20044;-83
2023/06/08 02:15:27;;;;;;;;;;;;;;;22.77;nan;101798.53;4987138;28;19926;-84
2023/06/08 02:17:53;;;;;;;;;;;;;;;22.68;nan;101803.94;4986660;28;20005;-84
2023/06/08 02:20:18;;;;;;;;;;;;;;;22.56;nan;101800.88;4985865;28;20027;-83
2023/06/08 02:22:45;;;;;;;;;;;;;;;22.50;nan;101794.72;4984778;28;19917;-84
2023/06/08 02:25:10;;;;;;;;;;;;;;;22.51;nan;101798.25;4986884;28;19918;-84
2023/06/08 02:27:36;;;;;;;;;;;;;;;22.54;nan;101800.38;4985957;28;20001;-84
2023/06/08 02:30:02;;;;;;;;;;;;;;;22.53;nan;101796.84;4983339;28;20424;-84
2023/06/08 02:32:32;;;;;;;;;;;;;;;22.53;nan;101801.50;4985591;28;20595;-83
2023/06/08 02:34:58;;;;;;;;;;;;;;;22.44;nan;101793.22;4985295;28;19928;-84
2023/06/08 02:37:23;;;;;;;;;;;;;;;22.40;nan;101791.34;4986818;28;19926;-84
2023/06/08 02:39:49;;;;;;;;;;;;;;;22.36;nan;101793.88;4982649;28;19922;-83
2023/06/08 02:42:14;;;;;;;;;;;;;;;22.35;nan;101795.00;4987973;28;19977;-84
2023/06/08 02:44:39;;;;;;;;;;;;;;;22.30;nan;101790.47;4987728;28;20437;-84
2023/06/08 02:47:05;;;;;;;;;;;;;;;22.27;nan;101793.00;4984013;28;20346;-84
2023/06/08 02:49:30;;;;;;;;;;;;;;;22.22;nan;101793.06;4985439;28;19945;-84
2023/06/08 02:51:55;;;;;;;;;;;;;;;22.20;nan;101792.56;4983186;28;19933;-84
2023/06/08 02:54:22;;;;;;;;;;;;;;;22.17;nan;101793.16;4987725;28;20432;-84
2023/06/08 02:56:47;;;;;;;;;;;;;;;22.17;nan;101793.97;4985319;28;19922;-84
2023/06/08 02:59:12;;;;;;;;;;;;;;;22.18;nan;101800.25;4985709;28;19925;-84
2023/06/08 03:01:53;;;;;;;;;;;;;;;22.16;nan;101794.28;4986574;28;19922;-83
2023/06/08 03:04:19;;;;;;;;;;;;;;;22.16;nan;101788.81;4987353;28;19969;-83
2023/06/08 03:06:44;;;;;;;;;;;;;;;22.15;nan;101798.13;4983078;28;19926;-84
2023/06/08 03:09:09;;;;;;;;;;;;;;;22.13;nan;101794.88;4987234;28;20540;-83
2023/06/08 03:11:35;;;;;;;;;;;;;;;22.08;nan;101784.84;4984862;28;20148;-83
2023/06/08 03:14:00;;;;;;;;;;;;;;;22.06;nan;101791.72;4986195;28;19957;-83
2023/06/08 03:16:26;;;;;;;;;;;;;;;22.05;nan;101796.38;4984752;28;20332;-83
2023/06/08 03:18:52;;;;;;;;;;;;;;;21.96;nan;101793.50;4987526;28;20421;-83
2023/06/08 03:21:18;;;;;;;;;;;;;;;21.89;nan;101792.25;4985596;28;19926;-84
2023/06/08 03:23:44;;;;;;;;;;;;;;;21.87;nan;101797.19;4986267;28;19922;-83
2023/06/08 03:26:10;;;;;;;;;;;;;;;21.90;nan;101794.69;4985235;28;19929;-84
2023/06/08 03:28:35;;;;;;;;;;;;;;;21.97;nan;101788.84;4985564;28;19924;-83
2023/06/08 03:31:00;;;;;;;;;;;;;;;22.03;nan;101793.91;4983344;28;19922;-83
2023/06/08 03:33:25;;;;;;;;;;;;;;;22.08;nan;101787.56;4984300;28;19928;-83
2023/06/08 03:35:53;;;;;;;;;;;;;;;22.15;nan;101787.19;4982940;28;19991;-84
2023/06/08 03:38:18;;;;;;;;;;;;;;;22.16;nan;101784.16;4983530;28;19969;-83
2023/06/08 03:40:43;;;;;;;;;;;;;;;22.18;nan;101789.31;4985524;28;20487;-84
2023/06/08 03:43:08;;;;;;;;;;;;;;;22.22;nan;101787.59;4987057;28;19926;-84
2023/06/08 03:45:34;;;;;;;;;;;;;;;22.24;nan;101788.09;4985742;28;19922;-84
2023/06/08 03:47:59;;;;;;;;;;;;;;;22.30;nan;101797.84;4984632;28;20416;-84
2023/06/08 03:50:24;;;;;;;;;;;;;;;22.35;nan;101789.53;4984275;28;19922;-85
2023/06/08 03:52:50;;;;;;;;;;;;;;;22.34;nan;101785.19;4984850;28;19918;-84
2023/06/08 03:55:16;;;;;;;;;;;;;;;22.36;nan;101784.88;4985016;28;20444;-85
2023/06/08 03:57:42;;;;;;;;;;;;;;;22.42;nan;101784.47;4983249;28;21063;-83
2023/06/08 04:00:11;;;;;;;;;;;;;;;22.52;nan;101794.41;4980641;28;19956;-84
2023/06/08 04:02:36;;;;;;;;;;;;;;;22.58;nan;101788.53;4981169;28;19926;-83
2023/06/08 04:05:02;;;;;;;;;;;;;;;22.63;nan;101793.09;4983164;28;19972;-84
2023/06/08 04:07:27;;;;;;;;;;;;;;;22.62;nan;101788.72;4985757;28;20511;-84
2023/06/08 04:09:53;;;;;;;;;;;;;;;22.60;nan;101791.75;4987660;28;20325;-84
2023/06/08 04:12:18;;;;;;;;;;;;;;;22.58;nan;101794.00;4984490;28;19922;-83
2023/06/08 04:14:43;;;;;;;;;;;;;;;22.60;nan;101796.41;4984698;28;19933;-84
2023/06/08 04:17:09;;;;;;;;;;;;;;;22.63;nan;101800.50;4987159;28;19917;-83
2023/06/08 04:19:34;;;;;;;;;;;;;;;22.65;nan;101796.34;4984635;28;20381;-84
2023/06/08 04:22:00;;;;;;;;;;;;;;;22.70;nan;101800.88;4984648;28;19972;-84
2023/06/08 04:24:28;;;;;;;;;;;;;;;22.70;nan;101798.16;4984303;28;19951;-83
2023/06/08 04:26:53;;;;;;;;;;;;;;;22.69;nan;101800.06;4981452;28;20306;-84
2023/06/08 04:29:19;;;;;;;;;;;;;;;22.68;nan;101800.38;4986437;28;19928;-83
2023/06/08 04:31:44;;;;;;;;;;;;;;;22.61;nan;101804.31;4980609;28;20381;-84
2023/06/08 04:34:10;;;;;;;;;;;;;;;22.60;nan;101810.06;4984382;28;19926;-83
2023/06/08 04:36:35;;;;;;;;;;;;;;;22.60;nan;101808.16;4983455;28;20449;-84
2023/06/08 04:39:01;;;;;;;;;;;;;;;22.66;nan;101805.34;4983657;28;19924;-84
2023/06/08 04:41:29;;;;;;;;;;;;;;;22.75;nan;101808.97;4986795;28;19932;-84
2023/06/08 04:43:54;;;;;;;;;;;;;;;22.84;nan;101801.72;4983933;28;19937;-84
2023/06/08 04:46:25;;;;;;;;;;;;;;;22.91;nan;101805.66;4984912;28;20001;-84
2023/06/08 04:48:51;;;;;;;;;;;;;;;22.99;nan;101811.53;4983643;28;19925;-84
2023/06/08 04:51:17;;;;;;;;;;;;;;;23.10;nan;101802.78;4983352;28;19926;-84
2023/06/08 04:53:42;;;;;;;;;;;;;;;23.19;nan;101798.22;4982483;28;20297;-83
2023/06/08 04:56:08;;;;;;;;;;;;;;;23.34;nan;101804.44;4987810;28;19933;-84
2023/06/08 04:58:33;;;;;;;;;;;;;;;23.46;nan;101805.53;4983325;28;19921;-85
2023/06/08 05:00:59;;;;;;;;;;;;;;;23.61;nan;101812.59;4982161;28;20032;-84
2023/06/08 05:03:25;;;;;;;;;;;;;;;23.70;nan;101813.47;4984408;28;19922;-84
2023/06/08 05:05:50;;;;;;;;;;;;;;;23.79;nan;101819.00;4981894;28;19918;-84
2023/06/08 05:08:16;;;;;;;;;;;;;;;23.88;nan;101819.03;4980929;28;20308;-84
2023/06/08 05:10:41;;;;;;;;;;;;;;;23.96;nan;101823.78;4999767;28;19957;-84
2023/06/08 05:13:07;;;;;;;;;;;;;;;24.07;nan;101811.47;4982490;28;19957;-84
2023/06/08 05:15:32;;;;;;;;;;;;;;;24.22;nan;101822.00;4982348;28;20392;-85
2023/06/08 05:17:58;;;;;;;;;;;;;;;24.37;nan;101816.16;4983492;28;20489;-84
2023/06/08 05:20:23;;;;;;;;;;;;;;;24.53;nan;101815.72;4981071;28;19925;-85
2023/06/08 05:22:49;;;;;;;;;;;;;;;24.68;nan;101807.09;4981467;28;19918;-85
2023/06/08 05:25:14;;;;;;;;;;;;;;;24.84;nan;101815.69;4984255;28;19937;-85
2023/06/08 05:27:40;;;;;;;;;;;;;;;24.96;nan;101808.47;4984214;28;20137;-85
2023/06/08 05:30:05;;;;;;;;;;;;;;;25.11;nan;101801.72;4982553;28;19957;-84
2023/06/08 05:32:31;;;;;;;;;;;;;;;25.21;nan;101806.09;4984200;28;19953;-84
2023/06/08 05:34:56;;;;;;;;;;;;;;;25.30;nan;101801.41;4981517;28;19925;-84
2023/06/08 05:37:21;;;;;;;;;;;;;;;25.43;nan;101802.38;4979550;28;19918;-84
2023/06/08 05:39:47;;;;;;;;;;;;;;;25.56;nan;101802.22;4982252;28;19933;-85
2023/06/08 05:42:14;;;;;;;;;;;;;;;25.73;nan;101806.13;4981459;28;21617;-85
2023/06/08 05:44:40;;;;;;;;;;;;;;;25.87;nan;101807.56;4979567;28;19976;-83
2023/06/08 05:47:05;;;;;;;;;;;;;;;26.02;nan;101805.41;4982480;28;19922;-84
2023/06/08 05:49:30;;;;;;;;;;;;;;;26.18;nan;101799.06;4982149;28;19945;-84
2023/06/08 05:51:56;;;;;;;;;;;;;;;26.32;nan;101796.09;4981499;28;20708;-84
2023/06/08 05:54:21;;;;;;;;;;;;;;;26.49;nan;101807.06;4981768;28;19918;-84
2023/06/08 05:56:46;;;;;;;;;;;;;;;26.67;nan;101806.97;4978329;28;20388;-85
2023/06/08 05:59:12;;;;;;;;;;;;;;;26.84;nan;101800.56;4986197;28;19968;-85
2023/06/08 06:01:37;;;;;;;;;;;;;;;26.98;nan;101806.63;4983972;28;20396;-84
2023/06/08 06:04:02;;;;;;;;;;;;;;;27.10;nan;101809.47;4985843;28;19921;-85
2023/06/08 06:06:28;;;;;;;;;;;;;;;27.26;nan;101817.94;4994543;28;20275;-83
2023/06/08 06:08:54;;;;;;;;;;;;;;;27.39;nan;101812.16;4980519;28;19929;-85
2023/06/08 06:11:20;;;;;;;;;;;;;;;27.53;nan;101802.84;4984552;28;19922;-85
2023/06/08 06:13:45;;;;;;;;;;;;;;;27.70;nan;101810.97;4982737;28;19924;-85
2023/06/08 06:16:11;;;;;;;;;;;;;;;27.86;nan;101809.19;4983392;28;19922;-85
2023/06/08 06:18:36;;;;;;;;;;;;;;;28.03;nan;101801.88;4983621;28;19926;-85
2023/06/08 06:21:01;;;;;;;;;;;;;;;28.14;nan;101806.59;4982035;28;19926;-85
2023/06/08 06:23:26;;;;;;;;;;;;;;;28.27;nan;101807.47;4981363;28;20285;-84
2023/06/08 06:25:52;;;;;;;;;;;;;;;28.40;nan;101809.09;4983132;28;21090;-84
2023/06/08 06:28:17;;;;;;;;;;;;;;;28.54;nan;101805.97;4984268;28;20293;-85
2023/06/08 06:30:42;;;;;;;;;;;;;;;28.65;nan;101800.81;4984220;28;19921;-85
2023/06/08 06:33:08;;;;;;;;;;;;;;;28.76;nan;101807.47;4982317;28;19932;-84
2023/06/08 06:35:33;;;;;;;;;;;;;;;28.88;nan;101813.78;4981313;28;19926;-85
2023/06/08 06:37:58;;;;;;;;;;;;;;;28.99;nan;101813.34;4983176;28;19921;-84
2023/06/08 06:40:24;;;;;;;;;;;;;;;29.11;nan;101810.56;4985668;28;20413;-84
2023/06/08 06:42:49;;;;;;;;;;;;;;;29.23;nan;101809.69;4978626;28;20060;-85
2023/06/08 06:45:14;;;;;;;;;;;;;;;29.37;nan;101808.16;4982992;28;19918;-85
2023/06/08 06:47:40;;;;;;;;;;;;;;;29.50;nan;101808.16;4981769;28;20369;-85
2023/06/08 06:50:06;;;;;;;;;;;;;;;29.64;nan;101812.13;4981413;28;19932;-85
2023/06/08 06:52:32;;;;;;;;;;;;;;;29.77;nan;101813.66;4988386;28;19988;-85
2023/06/08 06:54:58;;;;;;;;;;;;;;;29.89;nan;101814.75;4984774;28;19921;-85
2023/06/08 06:57:23;;;;;;;;;;;;;;;29.98;nan;101815.38;4990208;28;20441;-84
2023/06/08 06:59:50;;;;;;;;;;;;;;;30.05;nan;101815.63;4983896;28;19926;-85
2023/06/08 07:02:15;;;;;;;;;;;;;;;30.19;nan;101816.00;4984435;28;19921;-86
2023/06/08 07:04:41;;;;;;;;;;;;;;;30.35;nan;101810.47;4984858;28;20515;-85
2023/06/08 07:07:07;;;;;;;;;;;;;;;30.46;nan;101810.72;4979330;28;19922;-86
2023/06/08 07:09:32;;;;;;;;;;;;;;;30.61;nan;101805.19;4986732;28;19918;-84
2023/06/08 07:11:57;;;;;;;;;;;;;;;30.75;nan;101801.97;4986364;28;19965;-85
2023/06/08 07:14:24;;;;;;;;;;;;;;;30.90;nan;101797.56;4985886;28;20469;-85
2023/06/08 07:16:50;;;;;;;;;;;;;;;31.02;nan;101797.41;4985448;28;19932;-85
2023/06/08 07:19:15;;;;;;;;;;;;;;;31.16;nan;101799.69;4986882;28;19926;-85
2023/06/08 07:21:40;;;;;;;;;;;;;;;31.29;nan;101798.44;4989020;28;19933;-85
2023/06/08 07:24:06;;;;;;;;;;;;;;;31.42;nan;101794.34;4985355;28;19929;-85
2023/06/08 07:26:31;;;;;;;;;;;;;;;31.58;nan;101791.47;4977964;28;20013;-85
2023/06/08 07:29:00;;;;;;;;;;;;;;;31.74;nan;101791.41;4983846;28;19925;-84
2023/06/08 07:31:26;;;;;;;;;;;;;;;31.89;nan;101792.47;4985438;28;19921;-85
2023/06/08 07:33:52;;;;;;;;;;;;;;;32.03;nan;101782.44;4984906;28;19926;-85
2023/06/08 07:36:17;;;;;;;;;;;;;;;32.19;nan;101784.31;4983829;28;19949;-84
2023/06/08 07:38:43;;;;;;;;;;;;;;;32.32;nan;101785.75;4981448;28;20804;-85
2023/06/08 07:41:08;;;;;;;;;;;;;;;32.45;nan;101787.91;4980415;28;20494;-85
2023/06/08 07:43:33;;;;;;;;;;;;;;;32.62;nan;101786.59;4996459;28;19965;-85
2023/06/08 07:45:58;;;;;;;;;;;;;;;32.76;nan;101775.69;4985456;28;20384;-85
2023/06/08 07:48:24;;;;;;;;;;;;;;;32.91;nan;101778.72;4987898;28;19929;-85
2023/06/08 07:50:49;;;;;;;;;;;;;;;33.08;nan;101777.34;4982337;28;19984;-86
2023/06/08 07:53:15;;;;;;;;;;;;;;;33.21;nan;101776.69;4980335;28;19921;-84
2023/06/08 07:55:41;;;;;;;;;;;;;;;33.37;nan;101786.84;4988120;28;19971;-86
2023/06/08 07:58:06;;;;;;;;;;;;;;;33.53;nan;101784.66;4981612;28;19956;-85
2023/06/08 08:00:32;;;;;;;;;;;;;;;33.61;nan;101772.44;4999206;28;20009;-88
2023/06/08 08:02:57;;;;;;;;;;;;;;;33.72;nan;101780.88;4986505;28;20369;-85
2023/06/08 08:05:22;;;;;;;;;;;;;;;33.84;nan;101778.66;4982536;28;20310;-85
2023/06/08 08:07:48;;;;;;;;;;;;;;;33.96;nan;101776.78;5002217;28;20366;-86
2023/06/08 08:10:13;;;;;;;;;;;;;;;34.08;nan;101777.28;4986193;28;20008;-85
2023/06/08 08:12:38;;;;;;;;;;;;;;;34.23;nan;101773.44;4989305;28;19924;-85
2023/06/08 08:15:04;;;;;;;;;;;;;;;34.34;nan;101770.75;4987857;28;19917;-85
2023/06/08 08:17:29;;;;;;;;;;;;;;;34.42;nan;101779.94;4989428;28;19917;-85
2023/06/08 08:19:55;;;;;;;;;;;;;;;34.49;nan;101775.25;4988690;28;20027;-86
2023/06/08 08:22:21;;;;;;;;;;;;;;;34.63;nan;101773.72;4990895;28;20065;-85
2023/06/08 08:24:47;;;;;;;;;;;;;;;34.76;nan;101766.66;4989036;28;19926;-85
2023/06/08 08:27:12;;;;;;;;;;;;;;;34.85;nan;101772.72;4985767;28;19961;-85
2023/06/08 08:29:37;;;;;;;;;;;;;;;34.94;nan;101770.34;4986035;28;19921;-85
2023/06/08 08:32:03;;;;;;;;;;;;;;;35.02;nan;101774.78;4987025;28;19918;-85
2023/06/08 08:34:28;;;;;;;;;;;;;;;35.14;nan;101768.03;4991887;28;19972;-86
2023/06/08 08:36:54;;;;;;;;;;;;;;;35.22;nan;101766.09;4988995;28;19929;-86
2023/06/08 08:39:19;;;;;;;;;;;;;;;35.29;nan;101769.69;4988290;28;19917;-86
2023/06/08 08:41:45;;;;;;;;;;;;;;;35.40;nan;101770.56;4990664;28;19925;-86
2023/06/08 08:44:14;;;;;;;;;;;;;;;35.54;nan;101774.56;4992486;28;19937;-87
2023/06/08 08:46:42;;;;;;;;;;;;;;;35.64;nan;101771.81;4988086;28;19924;-86
2023/06/08 08:49:13;;;;;;;;;;;;;;;35.73;nan;101772.22;4987739;28;19976;-87
2023/06/08 08:51:39;;;;;;;;;;;;;;;35.84;nan;101775.03;4988235;28;19929;-86
2023/06/08 08:54:05;;;;;;;;;;;;;;;35.95;nan;101767.50;4985294;28;19918;-86
2023/06/08 08:56:35;;;;;;;;;;;;;;;36.03;nan;101769.06;4987906;28;19924;-85
2023/06/08 08:59:02;;;;;;;;;;;;;;;36.11;nan;101764.31;4986122;28;20394;-86
2023/06/08 09:01:28;;;;;;;;;;;;;;;36.20;nan;101763.88;4983394;28;20412;-86
2023/06/08 09:03:53;;;;;;;;;;;;;;;36.26;nan;101765.06;4988684;28;19945;-86
2023/06/08 09:06:19;;;;;;;;;;;;;;;36.27;nan;101759.13;4986326;28;20598;-86
2023/06/08 09:08:44;;;;;;;;;;;;;;;36.26;nan;101765.06;4985810;28;19918;-86
2023/06/08 09:11:10;;;;;;;;;;;;;;;36.23;nan;101760.28;4988451;28;20401;-85
2023/06/08 09:13:36;;;;;;;;;;;;;;;36.25;nan;101755.91;4982632;28;19940;-85
2023/06/08 09:16:09;;;;;;;;;;;;;;;36.25;nan;101758.69;4988542;28;19999;-87
2023/06/08 09:18:36;;;;;;;;;;;;;;;36.33;nan;101755.94;4988082;28;20005;-86
2023/06/08 09:21:21;;;;;;;;;;;;;;;36.46;nan;101759.91;4985906;28;19922;-87
2023/06/08 09:24:01;;;;;;;;;;;;;;;36.50;nan;101752.31;4987857;28;19922;-87
2023/06/08 09:26:32;;;;;;;;;;;;;;;36.52;nan;101756.31;4986844;28;20557;-87
2023/06/08 09:29:03;;;;;;;;;;;;;;;36.62;nan;101751.88;4983074;28;19928;-86
2023/06/08 09:31:29;;;;;;;;;;;;;;;36.80;nan;101747.06;4988262;28;19960;-86
2023/06/08 09:34:11;;;;;;;;;;;;;;;36.97;nan;101759.38;4986774;28;19921;-85
2023/06/08 09:36:38;;;;;;;;;;;;;;;37.11;nan;101752.91;4985181;28;19929;-85
2023/06/08 09:39:07;;;;;;;;;;;;;;;37.24;nan;101748.47;4979796;28;20297;-86
2023/06/08 09:41:37;;;;;;;;;;;;;;;37.47;nan;101748.75;4980738;28;19922;-87
2023/06/08 09:44:15;;;;;;;;;;;;;;;37.65;nan;101750.63;4984110;28;20025;-85
2023/06/08 09:46:47;;;;;;;;;;;;;;;37.67;nan;101749.00;4982975;28;19944;-87
2023/06/08 09:49:13;;;;;;;;;;;;;;;37.67;nan;101748.22;4990114;28;19972;-88
2023/06/08 09:51:41;;;;;;;;;;;;;;;37.74;nan;101737.03;4988941;28;19921;-86
2023/06/08 09:54:07;;;;;;;;;;;;;;;37.86;nan;101735.72;4986666;28;19917;-85
2023/06/08 09:56:33;;;;;;;;;;;;;;;37.92;nan;101726.47;4983148;28;19952;-85
2023/06/08 09:59:02;;;;;;;;;;;;;;;38.01;nan;101731.59;4983530;28;20024;-85
2023/06/08 10:01:46;;;;;;;;;;;;;;;38.19;nan;101728.66;4985891;28;19929;-86
2023/06/08 10:04:21;;;;;;;;;;;;;;;38.34;nan;101724.50;4986054;28;19926;-86
2023/06/08 10:06:47;;;;;;;;;;;;;;;38.43;nan;101735.22;4986386;28;19975;-86
2023/06/08 10:09:14;;;;;;;;;;;;;;;38.38;nan;101728.84;4986361;28;20008;-87
2023/06/08 10:11:40;;;;;;;;;;;;;;;38.32;nan;101732.53;4984537;28;19929;-87
2023/06/08 10:14:05;;;;;;;;;;;;;;;38.20;nan;101731.03;4983124;28;19925;-86
2023/06/08 10:16:31;;;;;;;;;;;;;;;38.18;nan;101733.47;4983391;28;20564;-86
2023/06/08 10:18:57;;;;;;;;;;;;;;;38.22;nan;101739.81;4982452;28;20012;-87
2023/06/08 10:21:22;;;;;;;;;;;;;;;38.32;nan;101733.31;4995338;28;19926;-87
2023/06/08 10:23:49;;;;;;;;;;;;;;;38.34;nan;101738.50;4986984;28;19967;-86
2023/06/08 10:26:15;;;;;;;;;;;;;;;38.26;nan;101728.59;4987076;28;19930;-86
2023/06/08 10:29:03;;;;;;;;;;;;;;;38.22;nan;101717.41;4984721;28;20417;-86
2023/06/08 10:31:31;;;;;;;;;;;;;;;38.20;nan;101725.44;4987573;28;19921;-86
2023/06/08 10:33:57;;;;;;;;;;;;;;;38.32;nan;101722.13;4986712;28;19925;-85
2023/06/08 10:36:33;;;;;;;;;;;;;;;38.52;nan;101719.50;4985909;28;20109;-85
2023/06/08 10:39:00;;;;;;;;;;;;;;;38.70;nan;101716.53;4987945;28;19922;-86
2023/06/08 10:41:44;;;;;;;;;;;;;;;38.94;nan;101715.41;4986300;28;19977;-87
2023/06/08 10:44:29;;;;;;;;;;;;;;;39.23;nan;101710.22;4988671;28;19928;-86
2023/06/08 10:46:56;;;;;;;;;;;;;;;39.40;nan;101708.38;4986337;28;19925;-87
2023/06/08 10:49:22;;;;;;;;;;;;;;;39.56;nan;101716.19;4985977;28;19924;-86
2023/06/08 10:51:53;;;;;;;;;;;;;;;39.67;nan;101707.56;4985802;28;19952;-86
2023/06/08 10:54:25;;;;;;;;;;;;;;;39.66;nan;101703.19;4988214;28;19918;-87
2023/06/08 10:56:52;;;;;;;;;;;;;;;39.65;nan;101710.81;4987747;28;20012;-87
2023/06/08 10:59:37;;;;;;;;;;;;;;;39.66;nan;101700.38;4989782;28;19968;-88
2023/06/08 11:02:06;;;;;;;;;;;;;;;39.80;nan;101698.13;4981582;28;19984;-88
2023/06/08 11:04:32;;;;;;;;;;;;;;;39.80;nan;101697.34;4987790;28;19928;-87
2023/06/08 11:06:58;;;;;;;;;;;;;;;39.93;nan;101697.53;4988574;28;20085;-87
2023/06/08 11:09:24;;;;;;;;;;;;;;;40.12;nan;101699.59;4987459;28;19918;-86
2023/06/08 11:11:50;;;;;;;;;;;;;;;40.17;nan;101685.06;4989065;28;19925;-85
2023/06/08 11:14:20;;;;;;;;;;;;;;;40.20;nan;101689.00;4986860;28;19925;-86
2023/06/08 11:16:50;;;;;;;;;;;;;;;40.26;nan;101684.50;4984558;28;19929;-87
2023/06/08 11:19:19;;;;;;;;;;;;;;;40.38;nan;101684.63;4990911;28;19928;-87
2023/06/08 11:21:45;;;;;;;;;;;;;;;40.45;nan;101678.94;4988538;28;19926;-88
2023/06/08 11:24:12;;;;;;;;;;;;;;;40.45;nan;101684.53;4984719;28;20005;-86
2023/06/08 11:26:37;;;;;;;;;;;;;;;40.43;nan;101681.38;4981732;28;19922;-86
2023/06/08 11:29:03;;;;;;;;;;;;;;;40.37;nan;101671.81;4990054;28;19995;-87
2023/06/08 11:31:33;;;;;;;;;;;;;;;40.26;nan;101668.44;4985636;28;19918;-86
2023/06/08 11:33:59;;;;;;;;;;;;;;;40.11;nan;101672.75;4983908;28;20032;-86
2023/06/08 11:36:25;;;;;;;;;;;;;;;40.01;nan;101668.13;5000506;28;19928;-86
2023/06/08 11:38:50;;;;;;;;;;;;;;;39.92;nan;101659.47;4987433;28;19926;-87
2023/06/08 11:41:15;;;;;;;;;;;;;;;40.01;nan;101657.69;4987712;28;19925;-85
2023/06/08 11:43:41;;;;;;;;;;;;;;;40.14;nan;101641.81;4986836;28;19918;-85
2023/06/08 11:46:07;;;;;;;;;;;;;;;40.30;nan;101655.13;4985305;28;19937;-86
2023/06/08 11:48:32;;;;;;;;;;;;;;;40.42;nan;101648.91;4984503;28;19960;-85
2023/06/08 11:50:59;;;;;;;;;;;;;;;40.55;nan;101651.81;4984754;28;20471;-86
2023/06/08 11:53:24;;;;;;;;;;;;;;;40.66;nan;101649.59;4986485;28;19929;-87
2023/06/08 11:55:53;;;;;;;;;;;;;;;40.70;nan;101652.31;4986504;28;19922;-87
2023/06/08 11:58:23;;;;;;;;;;;;;;;40.70;nan;101641.88;4984203;28;19922;-86
2023/06/08 12:00:48;;;;;;;;;;;;;;;40.72;nan;101644.25;4985558;28;19925;-85
2023/06/08 12:03:13;;;;;;;;;;;;;;;40.75;nan;101640.56;4989180;28;20315;-85
2023/06/08 12:05:40;;;;;;;;;;;;;;;40.84;nan;101649.22;4985369;28;19926;-86
2023/06/08 12:08:14;;;;;;;;;;;;;;;40.93;nan;101637.38;4985087;28;20420;-86
2023/06/08 12:10:41;;;;;;;;;;;;;;;40.88;nan;101637.91;4984334;28;19936;-86
2023/06/08 12:13:07;;;;;;;;;;;;;;;40.92;nan;101647.03;4988388;28;19921;-86
2023/06/08 12:15:37;;;;;;;;;;;;;;;41.07;nan;101634.22;4986347;28;19924;-86
2023/06/08 12:18:02;;;;;;;;;;;;;;;41.24;nan;101638.66;4982478;28;19922;-87
2023/06/08 12:20:32;;;;;;;;;;;;;;;41.37;nan;101635.94;4985414;28;19921;-86
2023/06/08 12:22:58;;;;;;;;;;;;;;;41.39;nan;101639.09;4981776;28;19929;-86
2023/06/08 12:25:23;;;;;;;;;;;;;;;41.32;nan;101634.47;4990838;28;19921;-85
2023/06/08 12:27:49;;;;;;;;;;;;;;;41.18;nan;101640.41;4988151;28;19940;-86
2023/06/08 12:30:14;;;;;;;;;;;;;;;41.11;nan;101634.13;4983390;28;19932;-86
2023/06/08 12:32:40;;;;;;;;;;;;;;;40.92;nan;101627.34;4989105;28;20406;-86
2023/06/08 12:35:05;;;;;;;;;;;;;;;40.78;nan;101630.50;4983958;28;19918;-86
2023/06/08 12:37:30;;;;;;;;;;;;;;;40.75;nan;101630.09;4984867;28;20647;-86
2023/06/08 12:39:56;;;;;;;;;;;;;;;40.74;nan;101622.13;4985624;28;19956;-85
2023/06/08 12:42:21;;;;;;;;;;;;;;;40.81;nan;101621.97;4979998;28;20317;-86
2023/06/08 12:44:47;;;;;;;;;;;;;;;40.97;nan;101618.44;4982563;28;20511;-86
2023/06/08 12:47:13;;;;;;;;;;;;;;;41.10;nan;101618.50;4983294;28;20297;-87
2023/06/08 12:49:39;;;;;;;;;;;;;;;41.20;nan;101623.09;4985229;28;19925;-85
2023/06/08 12:52:05;;;;;;;;;;;;;;;41.09;nan;101622.53;4983161;28;20579;-86
2023/06/08 12:54:32;;;;;;;;;;;;;;;40.86;nan;101617.88;4984164;28;19925;-86